Time;durP1;ratioP1;P1;durP2;ratioP2;P2;SDS_P1;SDS_P2;PMS_P1;PMS_P2;Temp;Humidity;BMP_temperature;BMP_pressure;BME280_temperature;BME280_humidity;BME280_pressure;Samples;Min_cycle;Max_cycle;Signal;HPM_P1;HPM_P2
2024/03/26 00:01:59;;;;;;;2.77;2.10;;;22.50;53.00;;;;;;4994632;28;20970;-68
2024/03/26 00:04:25;;;;;;;3.00;2.27;;;22.60;53.10;;;;;;4994212;28;20427;-67
2024/03/26 00:06:50;;;;;;;5.00;2.93;;;22.60;53.10;;;;;;4976513;28;20420;-68
2024/03/26 00:09:16;;;;;;;3.40;2.40;;;22.60;53.10;;;;;;4994087;28;20652;-67
2024/03/26 00:11:42;;;;;;;2.50;2.07;;;22.60;53.10;;;;;;4993908;28;20231;-68
2024/03/26 00:14:07;;;;;;;3.07;2.07;;;22.60;53.10;;;;;;4993442;28;20627;-67
2024/03/26 00:16:33;;;;;;;2.73;1.97;;;22.60;53.10;;;;;;4975752;28;20197;-67
2024/03/26 00:18:58;;;;;;;3.77;2.20;;;22.60;53.10;;;;;;4976028;28;20663;-68
2024/03/26 00:21:24;;;;;;;2.23;2.03;;;22.60;53.10;;;;;;4976017;28;20197;-67
2024/03/26 00:23:50;;;;;;;2.73;1.77;;;22.60;53.10;;;;;;4993914;28;20731;-68
2024/03/26 00:26:15;;;;;;;4.63;2.70;;;22.60;53.10;;;;;;4975889;28;20173;-68
2024/03/26 00:28:41;;;;;;;2.73;1.97;;;22.60;53.10;;;;;;4976353;28;20255;-68
2024/03/26 00:31:07;;;;;;;3.80;2.10;;;22.60;53.00;;;;;;4993623;28;20197;-68
2024/03/26 00:33:32;;;;;;;2.70;2.07;;;22.60;53.00;;;;;;4975780;28;20654;-67
2024/03/26 00:35:58;;;;;;;3.53;2.27;;;22.60;53.10;;;;;;4993350;28;20516;-67
2024/03/26 00:38:23;;;;;;;2.40;1.87;;;22.60;53.60;;;;;;4976416;28;20325;-68
2024/03/26 00:40:49;;;;;;;2.10;1.90;;;22.60;53.10;;;;;;4975118;28;20289;-68
2024/03/26 00:43:14;;;;;;;3.63;2.33;;;22.60;53.10;;;;;;4992744;28;20666;-68
2024/03/26 00:45:40;;;;;;;3.50;2.30;;;22.60;53.00;;;;;;4975074;28;20490;-67
2024/03/26 00:48:06;;;;;;;2.53;2.30;;;22.60;53.10;;;;;;4959603;28;20227;-68
2024/03/26 00:50:31;;;;;;;3.13;2.10;;;22.60;53.10;;;;;;4975162;28;20212;-67
2024/03/26 00:52:57;;;;;;;2.10;1.73;;;22.60;53.10;;;;;;4993275;28;20188;-68
2024/03/26 00:55:22;;;;;;;2.43;2.23;;;22.60;53.10;;;;;;4959656;28;20659;-68
2024/03/26 00:57:50;;;;;;;2.50;2.10;;;22.60;53.10;;;;;;4993235;28;20473;-68
2024/03/26 01:00:16;;;;;;;2.60;2.20;;;22.60;53.10;;;;;;4993033;28;20200;-66
2024/03/26 01:02:41;;;;;;;2.57;2.00;;;22.60;53.10;;;;;;4975262;28;20939;-68
2024/03/26 01:05:07;;;;;;;3.37;2.03;;;22.50;53.10;;;;;;4975902;28;20173;-66
2024/03/26 01:07:32;;;;;;;2.53;2.00;;;22.50;53.10;;;;;;4993189;28;20172;-68
2024/03/26 01:09:58;;;;;;;3.80;2.07;;;22.50;53.10;;;;;;4993118;28;20208;-67
2024/03/26 01:12:24;;;;;;;1.93;1.60;;;22.50;53.10;;;;;;4992892;28;20542;-69
2024/03/26 01:14:49;;;;;;;3.33;2.03;;;22.50;53.10;;;;;;4959131;28;20188;-68
2024/03/26 01:17:15;;;;;;;3.30;1.90;;;22.50;53.10;;;;;;4992730;28;20750;-67
2024/03/26 01:19:40;;;;;;;2.43;2.10;;;22.50;53.10;;;;;;4974939;28;20201;-67
2024/03/26 01:22:06;;;;;;;2.37;2.10;;;22.50;53.10;;;;;;4993006;28;20184;-68
2024/03/26 01:24:31;;;;;;;3.13;2.20;;;22.50;53.10;;;;;;4975325;28;20640;-67
2024/03/26 01:26:57;;;;;;;2.37;1.53;;;22.50;53.10;;;;;;4974886;28;20216;-68
2024/03/26 01:29:23;;;;;;;2.23;1.80;;;22.50;53.20;;;;;;4975091;28;20675;-68
2024/03/26 01:31:48;;;;;;;2.83;2.27;;;22.50;53.20;;;;;;4992990;28;20201;-68
2024/03/26 01:34:17;;;;;;;2.97;1.70;;;22.50;53.20;;;;;;4992442;28;20660;-67
2024/03/26 01:36:44;;;;;;;2.90;1.70;;;22.50;53.20;;;;;;4993175;28;20201;-67
2024/03/26 01:39:10;;;;;;;2.40;1.77;;;22.50;53.20;;;;;;4992434;28;20950;-68
2024/03/26 01:41:35;;;;;;;2.97;2.20;;;22.50;53.20;;;;;;4992372;28;20412;-67
2024/03/26 01:44:01;;;;;;;2.43;1.87;;;22.50;53.20;;;;;;4974405;28;20672;-68
2024/03/26 01:46:27;;;;;;;2.97;2.10;;;22.50;53.20;;;;;;4975296;28;20177;-68
2024/03/26 01:48:53;;;;;;;2.20;2.00;;;22.50;53.20;;;;;;4974550;28;20652;-67
2024/03/26 01:51:20;;;;;;;4.13;2.13;;;22.50;53.20;;;;;;4958889;28;20454;-68
2024/03/26 01:53:47;;;;;;;3.00;1.90;;;22.50;53.30;;;;;;4992407;28;20427;-68
2024/03/26 01:56:17;;;;;;;2.57;2.03;;;22.50;53.30;;;;;;4974376;28;20810;-68
2024/03/26 01:58:44;;;;;;;1.80;1.67;;;22.50;53.20;;;;;;4992342;28;20903;-68
2024/03/26 02:01:11;;;;;;;2.67;2.23;;;22.50;53.20;;;;;;4974275;28;21007;-68
2024/03/26 02:03:37;;;;;;;2.13;1.63;;;22.50;53.20;;;;;;4992281;28;20416;-68
2024/03/26 02:06:03;;;;;;;2.20;1.80;;;22.50;53.20;;;;;;4974661;28;20420;-68
2024/03/26 02:08:30;;;;;;;2.10;1.60;;;22.50;53.20;;;;;;4974337;28;20195;-68
2024/03/26 02:10:56;;;;;;;2.10;1.87;;;22.50;53.20;;;;;;4958812;28;20475;-68
2024/03/26 02:13:22;;;;;;;1.63;1.50;;;22.50;53.20;;;;;;4974971;28;20421;-68
2024/03/26 02:15:48;;;;;;;3.43;2.20;;;22.50;53.20;;;;;;4974601;28;20515;-68
2024/03/26 02:18:14;;;;;;;2.20;1.87;;;22.50;53.10;;;;;;4958622;28;20264;-68
2024/03/26 02:20:39;;;;;;;1.77;1.57;;;22.50;53.10;;;;;;4974412;28;20255;-69
2024/03/26 02:23:05;;;;;;;2.30;1.83;;;22.50;53.20;;;;;;4992130;28;20184;-68
2024/03/26 02:25:30;;;;;;;4.20;1.90;;;22.60;53.20;;;;;;4991829;28;20180;-69
2024/03/26 02:27:56;;;;;;;2.77;2.20;;;22.60;53.20;;;;;;4991985;28;20661;-68
2024/03/26 02:30:21;;;;;;;2.13;1.63;;;22.60;53.20;;;;;;4974704;28;20275;-68
2024/03/26 02:32:47;;;;;;;2.83;1.77;;;22.60;53.20;;;;;;4976523;28;20184;-69
2024/03/26 02:35:13;;;;;;;2.57;1.90;;;22.60;53.20;;;;;;4978519;28;20224;-68
2024/03/26 02:37:38;;;;;;;2.30;1.50;;;22.50;53.20;;;;;;4978387;28;20634;-68
2024/03/26 02:40:05;;;;;;;1.97;1.70;;;22.60;53.50;;;;;;4978587;28;20260;-68
2024/03/26 02:42:30;;;;;;;1.97;1.80;;;22.60;53.20;;;;;;4977813;28;20185;-68
2024/03/26 02:44:56;;;;;;;2.23;1.77;;;22.60;53.20;;;;;;4995904;28;20415;-67
2024/03/26 02:47:21;;;;;;;2.50;1.60;;;22.60;53.20;;;;;;4978049;28;20224;-68
2024/03/26 02:49:47;;;;;;;2.50;1.87;;;22.60;53.20;;;;;;4961776;28;20307;-69
2024/03/26 02:52:13;;;;;;;2.00;1.60;;;22.60;53.20;;;;;;4978085;28;20181;-68
2024/03/26 02:54:38;;;;;;;2.77;1.80;;;22.60;53.20;;;;;;4995638;28;20722;-68
2024/03/26 02:57:04;;;;;;;2.33;1.70;;;22.60;53.20;;;;;;4995904;28;20299;-67
2024/03/26 02:59:29;;;;;;;4.60;2.17;;;22.60;53.20;;;;;;4995293;28;20251;-68
2024/03/26 03:01:55;;;;;;;2.40;1.67;;;22.60;53.20;;;;;;4977582;28;20235;-68
2024/03/26 03:04:21;;;;;;;2.87;1.80;;;22.60;53.20;;;;;;4977726;28;20172;-68
2024/03/26 03:06:46;;;;;;;2.77;1.80;;;22.60;53.20;;;;;;4977903;28;20204;-68
2024/03/26 03:09:12;;;;;;;3.13;2.00;;;22.50;53.20;;;;;;4995299;28;20172;-68
2024/03/26 03:11:39;;;;;;;2.40;1.80;;;22.50;53.20;;;;;;4977376;28;20216;-68
2024/03/26 03:14:05;;;;;;;1.70;1.60;;;22.50;53.20;;;;;;4995180;28;20428;-67
2024/03/26 03:16:30;;;;;;;1.80;1.53;;;22.50;53.20;;;;;;4977535;28;20805;-68
2024/03/26 03:18:56;;;;;;;2.23;1.80;;;22.50;53.20;;;;;;4977786;28;20412;-67
2024/03/26 03:21:22;;;;;;;2.13;1.50;;;22.50;53.20;;;;;;4961385;28;20212;-68
2024/03/26 03:23:48;;;;;;;1.60;1.40;;;22.50;53.20;;;;;;4995367;28;20417;-68
2024/03/26 03:26:13;;;;;;;2.47;1.50;;;22.50;53.30;;;;;;4977319;28;20230;-68
2024/03/26 03:28:39;;;;;;;2.13;1.50;;;22.50;53.30;;;;;;4960465;28;20181;-68
2024/03/26 03:31:05;;;;;;;2.30;1.70;;;22.50;53.30;;;;;;4976673;28;20585;-68
2024/03/26 03:33:31;;;;;;;2.40;1.93;;;22.50;53.30;;;;;;4977091;28;20224;-69
2024/03/26 03:35:56;;;;;;;2.50;1.47;;;22.50;53.30;;;;;;4995250;28;20420;-69
2024/03/26 03:38:22;;;;;;;2.50;1.47;;;22.50;53.30;;;;;;4977443;28;20185;-67
2024/03/26 03:40:49;;;;;;;1.67;1.33;;;22.50;53.30;;;;;;4960625;28;20193;-68
2024/03/26 03:43:15;;;;;;;1.83;1.50;;;22.50;53.30;;;;;;4993578;28;20419;-68
2024/03/26 03:45:41;;;;;;;1.90;1.40;;;22.50;53.30;;;;;;4994571;28;20424;-67
2024/03/26 03:48:07;;;;;;;2.27;1.67;;;22.50;53.40;;;;;;4960438;28;20764;-69
2024/03/26 03:50:33;;;;;;;3.60;1.87;;;22.50;53.40;;;;;;4960506;28;20216;-68
2024/03/26 03:52:59;;;;;;;2.30;1.67;;;22.50;53.40;;;;;;4976672;28;20822;-68
2024/03/26 03:55:24;;;;;;;3.33;1.70;;;22.50;53.40;;;;;;4976853;28;20183;-68
2024/03/26 03:57:50;;;;;;;2.27;1.67;;;22.40;53.30;;;;;;4975926;28;20213;-68
2024/03/26 04:00:16;;;;;;;4.33;1.80;;;22.50;53.40;;;;;;4977165;28;20189;-68
2024/03/26 04:02:42;;;;;;;2.57;1.60;;;22.50;53.40;;;;;;4976407;28;20415;-68
2024/03/26 04:05:08;;;;;;;2.67;1.80;;;22.40;53.30;;;;;;4994099;28;20632;-68
2024/03/26 04:07:34;;;;;;;2.07;1.60;;;22.50;53.40;;;;;;4994309;28;20427;-68
2024/03/26 04:10:00;;;;;;;2.40;1.43;;;22.40;53.30;;;;;;4976626;28;20582;-69
2024/03/26 04:12:25;;;;;;;2.10;1.60;;;22.40;53.30;;;;;;4976288;28;20424;-68
2024/03/26 04:14:51;;;;;;;3.33;1.87;;;22.50;53.40;;;;;;4976208;28;20234;-68
2024/03/26 04:17:17;;;;;;;2.17;1.50;;;22.40;53.30;;;;;;4993732;28;20295;-68
2024/03/26 04:19:43;;;;;;;2.50;1.63;;;22.40;53.30;;;;;;4993405;28;20189;-68
2024/03/26 04:22:09;;;;;;;2.43;1.70;;;22.40;53.90;;;;;;4975398;28;20609;-68
2024/03/26 04:24:35;;;;;;;2.70;1.50;;;22.40;53.40;;;;;;4959639;28;20427;-68
2024/03/26 04:27:01;;;;;;;1.83;1.40;;;22.40;53.40;;;;;;4975936;28;20408;-69
2024/03/26 04:29:27;;;;;;;2.57;1.57;;;22.40;53.40;;;;;;4976259;28;20191;-68
2024/03/26 04:31:53;;;;;;;2.27;1.63;;;22.40;53.40;;;;;;4976032;28;20420;-67
2024/03/26 04:34:18;;;;;;;2.50;1.53;;;22.40;53.50;;;;;;4975983;28;20640;-68
2024/03/26 04:36:44;;;;;;;1.53;1.43;;;22.40;53.40;;;;;;4975350;28;20263;-68
2024/03/26 04:39:09;;;;;;;2.03;1.47;;;22.40;53.40;;;;;;4960166;28;20671;-68
2024/03/26 04:41:35;;;;;;;2.93;1.30;;;22.40;53.40;;;;;;4993527;28;20247;-67
2024/03/26 04:44:01;;;;;;;2.60;1.77;;;22.40;53.40;;;;;;4992719;28;20177;-68
2024/03/26 04:46:27;;;;;;;2.30;1.80;;;22.40;53.40;;;;;;4975699;28;20427;-68
2024/03/26 04:48:53;;;;;;;2.17;1.60;;;22.40;53.40;;;;;;4992386;28;20816;-67
2024/03/26 04:51:18;;;;;;;3.00;1.60;;;22.40;53.40;;;;;;4992924;28;20209;-69
2024/03/26 04:53:44;;;;;;;2.13;1.30;;;22.40;53.40;;;;;;4976153;28;20196;-68
2024/03/26 04:56:10;;;;;;;2.73;1.30;;;22.40;53.40;;;;;;4992913;28;20212;-67
2024/03/26 04:58:35;;;;;;;1.63;1.40;;;22.40;53.40;;;;;;4975997;28;20177;-68
2024/03/26 05:01:01;;;;;;;1.43;1.30;;;22.40;53.50;;;;;;4992915;28;20386;-68
2024/03/26 05:03:26;;;;;;;1.63;1.47;;;22.40;53.50;;;;;;4993422;28;20192;-68
2024/03/26 05:05:52;;;;;;;1.50;1.23;;;22.40;53.40;;;;;;4959655;28;20272;-68
2024/03/26 05:08:18;;;;;;;3.53;1.73;;;22.40;53.50;;;;;;4993745;28;20180;-68
2024/03/26 05:10:44;;;;;;;2.20;1.57;;;22.40;53.50;;;;;;4993316;28;20590;-67
2024/03/26 05:13:10;;;;;;;1.93;1.37;;;22.40;53.50;;;;;;4992721;28;20710;-68
2024/03/26 05:15:36;;;;;;;1.80;1.50;;;22.40;53.50;;;;;;4974802;28;20420;-68
2024/03/26 05:18:01;;;;;;;1.33;1.20;;;22.40;53.50;;;;;;4975550;28;20641;-68
2024/03/26 05:20:27;;;;;;;2.07;1.40;;;22.40;53.50;;;;;;4975526;28;20193;-69
2024/03/26 05:22:52;;;;;;;3.83;1.60;;;22.40;53.50;;;;;;4993343;28;20548;-68
2024/03/26 05:25:18;;;;;;;1.70;1.20;;;22.50;53.50;;;;;;4975405;28;20239;-68
2024/03/26 05:27:44;;;;;;;1.93;1.50;;;22.50;53.50;;;;;;4975478;28;20798;-67
2024/03/26 05:30:09;;;;;;;1.87;1.23;;;22.50;53.40;;;;;;4992784;28;20200;-69
2024/03/26 05:32:35;;;;;;;2.60;1.63;;;22.50;53.40;;;;;;4992399;28;20181;-67
2024/03/26 05:35:02;;;;;;;1.83;1.37;;;22.50;53.40;;;;;;4993101;28;20184;-69
2024/03/26 05:37:28;;;;;;;2.40;1.50;;;22.50;53.40;;;;;;4992970;28;20563;-68
2024/03/26 05:39:53;;;;;;;1.87;1.47;;;22.50;53.40;;;;;;4992819;28;20440;-67
2024/03/26 05:42:19;;;;;;;2.80;1.80;;;22.50;53.50;;;;;;4992935;28;20730;-69
2024/03/26 05:44:44;;;;;;;4.60;2.30;;;22.50;53.40;;;;;;4975260;28;20180;-67
2024/03/26 05:47:10;;;;;;;1.70;1.60;;;22.50;53.40;;;;;;4974592;28;20212;-67
2024/03/26 05:49:36;;;;;;;2.20;1.70;;;22.50;53.40;;;;;;4974167;28;20227;-67
2024/03/26 05:52:02;;;;;;;2.23;1.50;;;22.40;53.40;;;;;;4992114;28;20188;-68
2024/03/26 05:54:27;;;;;;;1.57;1.30;;;22.50;53.50;;;;;;4974662;28;20319;-68
2024/03/26 05:56:53;;;;;;;1.60;1.50;;;22.40;53.40;;;;;;4973998;28;20201;-67
2024/03/26 05:59:19;;;;;;;1.97;1.57;;;22.40;53.40;;;;;;4975220;28;20173;-68
2024/03/26 06:01:44;;;;;;;2.03;1.47;;;22.40;53.40;;;;;;4974681;28;20181;-68
2024/03/26 06:04:10;;;;;;;2.10;1.37;;;22.50;53.60;;;;;;4992572;28;20161;-67
2024/03/26 06:06:35;;;;;;;2.20;1.80;;;22.40;53.40;;;;;;4993914;28;20181;-66
2024/03/26 06:09:01;;;;;;;1.50;1.30;;;22.50;53.50;;;;;;4978466;28;20173;-67
2024/03/26 06:11:29;;;;;;;2.03;1.60;;;22.40;53.30;;;;;;4977905;28;20204;-69
2024/03/26 06:13:54;;;;;;;1.60;1.30;;;22.40;53.30;;;;;;4978000;28;20423;-70
2024/03/26 06:16:20;;;;;;;2.80;1.57;;;22.40;53.30;;;;;;4995553;28;20526;-68
2024/03/26 06:18:45;;;;;;;1.60;1.50;;;22.40;53.40;;;;;;4978055;28;20208;-69
2024/03/26 06:21:11;;;;;;;4.60;1.60;;;22.40;53.40;;;;;;4995782;28;20660;-68
2024/03/26 06:23:37;;;;;;;1.80;1.40;;;22.40;53.50;;;;;;4994703;28;20223;-68
2024/03/26 06:26:03;;;;;;;1.73;1.40;;;22.40;53.50;;;;;;4977002;28;20197;-68
2024/03/26 06:28:29;;;;;;;2.00;1.60;;;22.40;53.50;;;;;;4994337;28;20455;-67
2024/03/26 06:30:55;;;;;;;2.63;1.80;;;22.40;53.50;;;;;;4994354;28;20224;-68
2024/03/26 06:33:20;;;;;;;2.40;1.80;;;22.40;53.50;;;;;;4994661;28;20188;-68
2024/03/26 06:35:46;;;;;;;3.90;1.90;;;22.40;53.50;;;;;;4994097;28;20582;-68
2024/03/26 06:38:12;;;;;;;1.80;1.60;;;22.40;53.50;;;;;;4976405;28;20243;-67
2024/03/26 06:40:38;;;;;;;2.50;1.63;;;22.40;53.50;;;;;;4994129;28;20439;-70
2024/03/26 06:43:04;;;;;;;1.63;1.37;;;22.40;53.50;;;;;;4961608;28;20173;-69
2024/03/26 06:45:30;;;;;;;2.33;1.53;;;22.40;53.50;;;;;;4977202;28;20176;-68
2024/03/26 06:47:57;;;;;;;2.70;1.70;;;22.40;53.50;;;;;;4994951;28;20408;-68
2024/03/26 06:50:22;;;;;;;3.70;1.97;;;22.40;53.30;;;;;;4961701;28;20828;-68
2024/03/26 06:52:52;;;;;;;6.80;3.10;;;22.50;53.20;;;;;;4977466;28;20416;-68
2024/03/26 06:55:18;;;;;;;3.83;2.20;;;22.40;52.80;;;;;;4977283;28;20181;-68
2024/03/26 06:57:44;;;;;;;3.50;1.93;;;22.50;52.70;;;;;;4977140;28;20949;-68
2024/03/26 07:00:14;;;;;;;3.00;2.00;;;22.40;52.60;;;;;;4994786;28;20502;-67
2024/03/26 07:02:41;;;;;;;1.70;1.60;;;22.40;52.80;;;;;;4995406;28;20411;-65
2024/03/26 07:05:08;;;;;;;3.80;2.00;;;22.40;53.10;;;;;;4995347;28;20454;-69
2024/03/26 07:07:34;;;;;;;3.00;1.90;;;22.40;53.10;;;;;;4977897;28;20411;-68
2024/03/26 07:10:00;;;;;;;2.80;2.40;;;22.50;53.10;;;;;;4994642;28;20943;-68
2024/03/26 07:12:26;;;;;;;2.53;1.93;;;22.50;53.00;;;;;;4977078;28;20184;-68
2024/03/26 07:14:53;;;;;;;3.17;2.10;;;22.50;53.00;;;;;;4994249;28;20412;-67
2024/03/26 07:17:19;;;;;;;3.13;2.10;;;22.50;52.80;;;;;;4993837;28;20205;-68
2024/03/26 07:19:44;;;;;;;2.80;1.83;;;22.50;52.70;;;;;;4976019;28;20431;-69
2024/03/26 07:22:10;;;;;;;2.73;1.97;;;22.50;52.70;;;;;;4993915;28;20174;-68
2024/03/26 07:24:36;;;;;;;3.23;2.17;;;22.50;52.70;;;;;;4993970;28;20263;-69
2024/03/26 07:27:02;;;;;;;2.90;2.07;;;22.50;52.60;;;;;;4993752;28;20188;-67
2024/03/26 07:29:28;;;;;;;4.00;2.50;;;22.50;52.70;;;;;;4960005;28;20443;-68
2024/03/26 07:31:53;;;;;;;1.97;1.70;;;22.50;52.70;;;;;;4975796;28;20208;-68
2024/03/26 07:34:19;;;;;;;2.37;1.90;;;22.50;52.90;;;;;;4975828;28;20683;-68
2024/03/26 07:36:45;;;;;;;2.43;2.10;;;22.50;53.10;;;;;;4993449;28;20205;-68
2024/03/26 07:39:11;;;;;;;4.50;2.10;;;22.50;53.20;;;;;;4993474;28;20171;-68
2024/03/26 07:41:36;;;;;;;1.67;1.33;;;22.50;53.30;;;;;;4975737;28;20208;-68
2024/03/26 07:44:03;;;;;;;2.30;1.70;;;22.50;53.30;;;;;;4975954;28;20420;-67
2024/03/26 07:46:29;;;;;;;2.20;2.00;;;22.60;53.40;;;;;;4976206;28;20256;-68
2024/03/26 07:48:54;;;;;;;3.40;1.90;;;22.60;53.50;;;;;;4975505;28;20519;-68
2024/03/26 07:51:20;;;;;;;2.30;1.53;;;22.60;53.50;;;;;;4975403;28;20866;-68
2024/03/26 07:53:49;;;;;;;2.57;1.67;;;22.60;53.50;;;;;;4959398;28;20208;-67
2024/03/26 07:56:14;;;;;;;2.83;1.87;;;22.60;53.50;;;;;;4993083;28;20993;-68
2024/03/26 07:58:40;;;;;;;2.60;1.93;;;22.60;53.50;;;;;;4993207;28;20495;-68
2024/03/26 08:01:05;;;;;;;3.20;2.23;;;22.70;53.60;;;;;;4975463;28;20675;-67
2024/03/26 08:03:31;;;;;;;1.70;1.60;;;22.60;53.50;;;;;;4975250;28;20176;-68
2024/03/26 08:05:57;;;;;;;2.33;1.60;;;22.60;53.40;;;;;;4975699;28;20176;-68
2024/03/26 08:08:22;;;;;;;3.40;1.73;;;22.60;53.40;;;;;;4992870;28;20173;-68
2024/03/26 08:10:48;;;;;;;1.67;1.40;;;22.70;54.00;;;;;;4959350;28;20750;-69
2024/03/26 08:13:13;;;;;;;2.37;1.70;;;22.70;53.50;;;;;;4975592;28;20539;-68
2024/03/26 08:15:39;;;;;;;1.70;1.60;;;22.70;53.50;;;;;;4993000;28;20276;-69
2024/03/26 08:18:05;;;;;;;4.63;2.03;;;22.70;53.50;;;;;;4975267;28;20622;-67
2024/03/26 08:20:31;;;;;;;2.83;1.70;;;22.70;53.40;;;;;;4992646;28;20204;-69
2024/03/26 08:22:58;;;;;;;2.20;1.57;;;22.70;53.40;;;;;;4992650;28;20415;-68
2024/03/26 08:25:23;;;;;;;2.10;1.90;;;22.70;53.40;;;;;;4958932;28;20420;-68
2024/03/26 08:27:49;;;;;;;1.63;1.40;;;22.70;53.40;;;;;;4943008;28;20981;-68
2024/03/26 08:30:15;;;;;;;2.70;1.60;;;22.70;53.40;;;;;;4975121;28;20223;-68
2024/03/26 08:32:42;;;;;;;3.47;1.83;;;22.70;53.30;;;;;;4958931;28;20193;-68
2024/03/26 08:35:08;;;;;;;3.33;1.70;;;22.70;53.30;;;;;;4975174;28;20482;-67
2024/03/26 08:37:35;;;;;;;3.37;1.73;;;22.70;53.30;;;;;;4992728;28;20922;-68
2024/03/26 08:40:02;;;;;;;2.30;1.70;;;22.70;53.30;;;;;;4959189;28;20458;-66
2024/03/26 08:42:27;;;;;;;3.47;2.10;;;22.70;53.30;;;;;;4992397;28;20494;-68
2024/03/26 08:44:53;;;;;;;1.70;1.37;;;22.70;53.30;;;;;;4992478;28;20857;-68
2024/03/26 08:47:18;;;;;;;2.13;1.50;;;22.70;53.30;;;;;;4974730;28;20231;-67
2024/03/26 08:49:44;;;;;;;2.07;1.53;;;22.70;53.30;;;;;;4992282;28;20334;-68
2024/03/26 08:52:10;;;;;;;1.87;1.50;;;22.70;53.30;;;;;;4992163;28;20538;-70
2024/03/26 08:54:35;;;;;;;2.03;1.70;;;22.70;53.40;;;;;;4974520;28;20650;-67
2024/03/26 08:57:01;;;;;;;2.30;1.80;;;22.70;53.40;;;;;;4974502;28;20211;-67
2024/03/26 08:59:26;;;;;;;2.17;1.60;;;22.70;53.40;;;;;;4974776;28;20519;-67
2024/03/26 09:01:53;;;;;;;1.50;1.30;;;22.70;54.00;;;;;;4992526;28;20209;-69
2024/03/26 09:04:18;;;;;;;2.40;1.80;;;22.70;53.50;;;;;;4974394;28;20177;-68
2024/03/26 09:06:44;;;;;;;2.10;1.40;;;22.70;53.50;;;;;;4974654;28;20431;-68
2024/03/26 09:09:09;;;;;;;3.33;1.70;;;22.70;53.50;;;;;;4958257;28;20212;-68
2024/03/26 09:11:35;;;;;;;1.80;1.47;;;22.70;53.50;;;;;;4992213;28;20282;-68
2024/03/26 09:14:01;;;;;;;2.57;1.70;;;22.70;53.50;;;;;;4991934;28;20647;-69
2024/03/26 09:16:27;;;;;;;2.00;1.73;;;22.70;53.50;;;;;;4974313;28;20207;-68
2024/03/26 09:18:52;;;;;;;2.30;1.60;;;22.70;53.50;;;;;;4992067;28;20228;-68
2024/03/26 09:21:18;;;;;;;2.87;1.90;;;22.70;53.50;;;;;;4992035;28;20440;-68
2024/03/26 09:23:44;;;;;;;2.00;1.30;;;22.70;53.50;;;;;;4974708;28;20196;-68
2024/03/26 09:26:09;;;;;;;1.83;1.47;;;22.70;53.50;;;;;;4958503;28;20181;-68
2024/03/26 09:28:35;;;;;;;2.40;1.90;;;22.70;53.50;;;;;;4974572;28;20643;-69
2024/03/26 09:31:00;;;;;;;1.70;1.50;;;22.70;53.50;;;;;;4991953;28;20188;-68
2024/03/26 09:33:26;;;;;;;2.07;1.80;;;22.70;53.50;;;;;;4991977;28;20174;-68
2024/03/26 09:35:52;;;;;;;2.33;1.70;;;22.80;53.50;;;;;;4991888;28;20632;-68
2024/03/26 09:38:17;;;;;;;3.10;1.60;;;22.70;53.40;;;;;;4992097;28;20212;-66
2024/03/26 09:40:54;;;;;;;3.63;1.90;;;22.70;53.40;;;;;;4975275;28;20227;-68
2024/03/26 09:43:21;;;;;;;2.20;1.40;;;22.80;53.50;;;;;;4980690;28;20188;-69
2024/03/26 09:45:48;;;;;;;2.50;1.40;;;22.80;53.50;;;;;;4980594;28;20435;-68
2024/03/26 09:48:15;;;;;;;1.90;1.57;;;22.70;53.40;;;;;;4981032;28;20412;-68
2024/03/26 09:50:42;;;;;;;2.57;1.80;;;22.70;54.00;;;;;;4980978;28;20463;-68
2024/03/26 09:53:12;;;;;;;3.90;1.80;;;22.70;53.40;;;;;;4998355;28;20499;-68
2024/03/26 09:55:39;;;;;;;1.77;1.40;;;22.80;53.50;;;;;;4980817;28;20415;-68
2024/03/26 09:58:05;;;;;;;2.20;1.70;;;22.80;53.50;;;;;;4998200;28;20459;-69
2024/03/26 10:00:33;;;;;;;2.50;1.90;;;22.80;53.50;;;;;;4980767;28;20973;-69
2024/03/26 10:03:01;;;;;;;2.73;1.70;;;22.80;53.50;;;;;;4980860;28;20177;-68
2024/03/26 10:05:28;;;;;;;1.73;1.53;;;22.80;53.50;;;;;;4948979;28;20427;-68
2024/03/26 10:07:54;;;;;;;1.60;1.50;;;22.80;53.50;;;;;;4998586;28;20447;-68
2024/03/26 10:10:21;;;;;;;2.10;1.60;;;22.80;53.60;;;;;;4980443;28;20440;-68
2024/03/26 10:12:46;;;;;;;2.00;1.60;;;22.80;53.60;;;;;;4980468;28;20416;-68
2024/03/26 10:15:12;;;;;;;2.40;1.77;;;22.80;53.60;;;;;;4980687;28;20482;-69
2024/03/26 10:17:38;;;;;;;1.83;1.30;;;22.80;53.60;;;;;;4998063;28;20204;-68
2024/03/26 10:20:08;;;;;;;3.60;2.43;;;22.80;53.60;;;;;;4980267;28;20679;-68
2024/03/26 10:22:34;;;;;;;2.50;1.63;;;22.80;53.60;;;;;;4998518;28;20187;-68
2024/03/26 10:25:00;;;;;;;1.73;1.50;;;22.80;53.70;;;;;;4981129;28;20440;-69
2024/03/26 10:27:26;;;;;;;2.10;1.40;;;22.80;53.70;;;;;;4980785;28;20176;-69
2024/03/26 10:29:52;;;;;;;1.93;1.30;;;22.80;53.70;;;;;;4964815;28;20251;-67
2024/03/26 10:32:22;;;;;;;1.60;1.40;;;22.80;53.70;;;;;;4998293;28;20189;-68
2024/03/26 10:34:54;;;;;;;2.33;1.67;;;22.80;53.70;;;;;;4980305;28;20413;-67
2024/03/26 10:37:24;;;;;;;1.90;1.37;;;22.80;53.60;;;;;;4980886;28;20452;-69
2024/03/26 10:39:55;;;;;;;3.03;1.80;;;22.80;53.70;;;;;;4980980;28;20775;-67
2024/03/26 10:42:25;;;;;;;2.37;1.30;;;22.80;53.70;;;;;;4998633;28;20399;-68
2024/03/26 10:44:57;;;;;;;1.47;1.30;;;22.80;53.60;;;;;;4980558;28;20474;-69
2024/03/26 10:47:24;;;;;;;2.83;1.60;;;22.80;53.60;;;;;;4980345;28;20396;-68
2024/03/26 10:49:51;;;;;;;1.80;1.53;;;22.80;53.60;;;;;;4980473;28;20471;-69
2024/03/26 10:52:20;;;;;;;1.50;1.30;;;22.80;53.60;;;;;;4997237;28;20416;-69
2024/03/26 10:54:48;;;;;;;2.80;1.47;;;22.80;53.60;;;;;;4976708;28;20424;-69
2024/03/26 10:57:15;;;;;;;1.80;1.40;;;22.80;53.60;;;;;;4994663;28;20486;-68
2024/03/26 10:59:40;;;;;;;2.33;1.43;;;22.80;53.60;;;;;;4977327;28;20432;-67
2024/03/26 11:02:07;;;;;;;1.90;1.70;;;22.80;53.60;;;;;;4961014;28;20922;-67
2024/03/26 11:04:33;;;;;;;2.07;1.73;;;22.80;53.60;;;;;;4977423;28;20178;-69
2024/03/26 11:06:59;;;;;;;1.43;1.30;;;22.80;53.60;;;;;;4995010;28;20423;-68
2024/03/26 11:09:25;;;;;;;2.00;1.80;;;22.80;53.60;;;;;;4977033;28;20709;-69
2024/03/26 11:11:51;;;;;;;1.43;1.30;;;22.80;53.60;;;;;;4994802;28;20191;-68
2024/03/26 11:14:16;;;;;;;2.60;1.60;;;22.80;53.60;;;;;;4945093;28;20412;-68
2024/03/26 11:16:43;;;;;;;1.47;1.30;;;22.80;53.60;;;;;;4976859;28;20219;-67
2024/03/26 11:19:25;;;;;;;1.83;1.10;;;22.80;53.60;;;;;;4995144;28;20169;-68
2024/03/26 11:21:55;;;;;;;1.70;1.40;;;22.80;54.10;;;;;;4996141;28;20416;-68
2024/03/26 11:24:21;;;;;;;1.10;1.00;;;22.80;53.60;;;;;;4996119;28;20523;-68
2024/03/26 11:26:46;;;;;;;1.70;1.30;;;22.80;53.60;;;;;;4995770;28;20859;-68
2024/03/26 11:29:13;;;;;;;2.37;1.50;;;22.80;53.50;;;;;;4977094;28;20600;-69
2024/03/26 11:31:41;;;;;;;1.63;1.40;;;22.80;53.60;;;;;;4978023;28;20251;-68
2024/03/26 11:34:07;;;;;;;1.60;1.27;;;22.80;53.50;;;;;;4995776;28;20420;-68
2024/03/26 11:36:35;;;;;;;1.73;1.23;;;22.80;53.50;;;;;;4995617;28;20607;-66
2024/03/26 11:39:00;;;;;;;2.13;1.30;;;22.80;53.60;;;;;;4995549;28;20444;-68
2024/03/26 11:41:27;;;;;;;1.40;1.30;;;22.80;53.60;;;;;;4977754;28;20432;-67
2024/03/26 11:43:53;;;;;;;1.30;1.10;;;22.80;53.60;;;;;;4977871;28;20200;-68
2024/03/26 11:46:19;;;;;;;2.00;1.40;;;22.80;53.60;;;;;;4977826;28;20440;-70
2024/03/26 11:49:03;;;;;;;1.57;1.17;;;22.80;53.60;;;;;;4995381;28;20176;-69
2024/03/26 11:51:30;;;;;;;2.40;1.93;;;22.80;53.60;;;;;;4977557;28;20223;-68
2024/03/26 11:53:56;;;;;;;1.50;1.40;;;22.80;53.60;;;;;;4995254;28;20412;-68
2024/03/26 11:56:23;;;;;;;2.33;1.57;;;22.80;53.60;;;;;;4995424;28;20502;-67
2024/03/26 11:58:49;;;;;;;1.43;1.07;;;22.80;53.60;;;;;;4977687;28;20415;-69
2024/03/26 12:01:19;;;;;;;1.80;1.27;;;22.80;53.60;;;;;;4977263;28;20474;-69
2024/03/26 12:04:01;;;;;;;1.50;1.40;;;22.80;53.60;;;;;;4976775;28;20424;-69
2024/03/26 12:06:28;;;;;;;1.30;1.20;;;22.80;53.70;;;;;;4978119;28;20408;-68
2024/03/26 12:08:55;;;;;;;1.33;1.10;;;22.80;53.70;;;;;;4995681;28;20443;-69
2024/03/26 12:11:22;;;;;;;1.37;1.13;;;22.80;53.70;;;;;;4994813;28;20892;-68
2024/03/26 12:13:48;;;;;;;2.10;1.50;;;22.80;53.70;;;;;;4995327;28;20773;-68
2024/03/26 12:16:24;;;;;;;1.60;1.33;;;22.80;53.60;;;;;;4994831;28;20408;-68
2024/03/26 12:18:52;;;;;;;1.67;1.37;;;22.80;53.60;;;;;;4995314;28;20238;-67
2024/03/26 12:21:17;;;;;;;1.77;1.43;;;22.80;53.70;;;;;;4995022;28;20452;-68
2024/03/26 12:23:47;;;;;;;1.63;1.30;;;22.80;53.60;;;;;;4977336;28;20939;-68
2024/03/26 12:26:13;;;;;;;1.60;1.00;;;22.80;53.60;;;;;;4995602;28;20176;-69
2024/03/26 12:28:39;;;;;;;1.30;1.13;;;22.80;54.20;;;;;;4976586;28;20416;-68
2024/03/26 12:31:04;;;;;;;1.27;1.10;;;22.80;53.60;;;;;;4977469;28;20557;-70
2024/03/26 12:33:30;;;;;;;2.00;1.30;;;22.80;53.60;;;;;;4995045;28;20177;-68
2024/03/26 12:35:57;;;;;;;3.20;1.10;;;22.80;53.60;;;;;;4976711;28;20175;-69
2024/03/26 12:38:23;;;;;;;1.43;1.17;;;22.80;53.70;;;;;;4994494;28;20303;-68
2024/03/26 12:40:49;;;;;;;1.10;0.90;;;22.80;53.60;;;;;;4977143;28;20528;-69
2024/03/26 12:43:15;;;;;;;1.50;1.07;;;22.80;53.70;;;;;;4994800;28;20240;-67